Time;durP1;ratioP1;P1;durP2;ratioP2;P2;SDS_P1;SDS_P2;PMS_P1;PMS_P2;Temp;Humidity;BMP_temperature;BMP_pressure;BME280_temperature;BME280_humidity;BME280_pressure;Samples;Min_cycle;Max_cycle;Signal;HPM_P1;HPM_P2
2022/10/11 00:02:13;;;;;;;9.77;5.17;;;;;;;;;;4974884;28;20544;-54
2022/10/11 00:04:39;;;;;;;10.33;5.43;;;;;;;;;;4975377;28;20441;-55
2022/10/11 00:07:05;;;;;;;15.63;5.53;;;;;;;;;;4964379;28;20554;-56
2022/10/11 00:09:31;;;;;;;8.27;6.90;;;;;;;;;;4957918;28;20457;-56
2022/10/11 00:11:57;;;;;;;10.60;6.30;;;;;;;;;;4974260;28;20436;-56
2022/10/11 00:14:23;;;;;;;11.50;6.63;;;;;;;;;;4961292;28;20507;-55
2022/10/11 00:16:49;;;;;;;8.90;7.00;;;;;;;;;;4977745;28;20464;-55
2022/10/11 00:19:15;;;;;;;8.20;5.50;;;;;;;;;;4974401;28;21075;-54
2022/10/11 00:21:41;;;;;;;13.23;6.00;;;;;;;;;;4979273;28;20481;-54
2022/10/11 00:24:07;;;;;;;14.47;6.73;;;;;;;;;;4949672;28;20436;-55
2022/10/11 00:26:33;;;;;;;11.43;5.53;;;;;;;;;;4977910;28;20441;-54
2022/10/11 00:28:59;;;;;;;9.47;6.00;;;;;;;;;;4972960;28;20476;-55
2022/10/11 00:31:25;;;;;;;10.07;6.87;;;;;;;;;;4972293;28;21724;-55
2022/10/11 00:33:52;;;;;;;8.70;5.67;;;;;;;;;;4958655;28;20485;-54
2022/10/11 00:36:18;;;;;;;13.83;6.10;;;;;;;;;;4977337;28;20488;-53
2022/10/11 00:38:44;;;;;;;10.67;7.30;;;;;;;;;;4954218;28;21307;-55
2022/10/11 00:41:10;;;;;;;10.40;6.40;;;;;;;;;;4975259;28;20444;-55
2022/10/11 00:43:36;;;;;;;16.80;6.93;;;;;;;;;;4972726;28;20449;-55
2022/10/11 00:46:04;;;;;;;11.90;7.13;;;;;;;;;;4979344;28;20441;-54
2022/10/11 00:48:32;;;;;;;10.37;5.90;;;;;;;;;;4956436;28;20805;-55
2022/10/11 00:50:59;;;;;;;8.00;6.50;;;;;;;;;;4992088;28;20499;-54
2022/10/11 00:53:26;;;;;;;8.63;6.27;;;;;;;;;;4955945;28;20512;-54
2022/10/11 00:55:59;;;;;;;10.20;5.80;;;;;;;;;;5007987;28;20850;-55
2022/10/11 00:58:25;;;;;;;11.30;6.47;;;;;;;;;;4919139;28;20953;-55
2022/10/11 01:00:52;;;;;;;13.70;6.27;;;;;;;;;;4976225;28;20438;-55
2022/10/11 01:03:18;;;;;;;9.90;6.20;;;;;;;;;;4975458;28;20484;-55
2022/10/11 01:05:44;;;;;;;10.07;6.00;;;;;;;;;;4978806;28;20441;-56
2022/10/11 01:08:10;;;;;;;9.07;5.57;;;;;;;;;;4987239;28;20852;-55
2022/10/11 01:10:36;;;;;;;16.90;6.93;;;;;;;;;;4972119;28;20498;-55
2022/10/11 01:13:02;;;;;;;8.17;5.67;;;;;;;;;;4965974;28;20429;-55
2022/10/11 01:15:28;;;;;;;11.27;6.97;;;;;;;;;;4965660;28;20453;-54
2022/10/11 01:18:00;;;;;;;9.40;6.60;;;;;;;;;;4970746;28;20525;-55
2022/10/11 01:20:35;;;;;;;11.17;6.20;;;;;;;;;;4991045;28;20450;-55
2022/10/11 01:23:08;;;;;;;11.07;6.23;;;;;;;;;;4965647;28;21276;-55
2022/10/11 01:25:36;;;;;;;9.20;6.03;;;;;;;;;;4977399;28;20445;-55
2022/10/11 01:28:12;;;;;;;11.60;6.77;;;;;;;;;;4958584;28;20441;-55
2022/10/11 01:30:39;;;;;;;15.27;6.90;;;;;;;;;;4968855;28;20460;-54
2022/10/11 01:33:08;;;;;;;17.00;6.63;;;;;;;;;;4964684;28;20437;-54
2022/10/11 01:35:54;;;;;;;12.13;6.27;;;;;;;;;;4971034;28;20440;-54
2022/10/11 01:38:29;;;;;;;15.23;6.40;;;;;;;;;;4955022;28;20437;-55
2022/10/11 01:40:56;;;;;;;11.07;6.70;;;;;;;;;;4978053;28;20457;-54
2022/10/11 01:43:22;;;;;;;8.83;6.27;;;;;;;;;;5007820;28;20429;-54
2022/10/11 01:45:52;;;;;;;9.93;7.07;;;;;;;;;;4981654;28;20441;-54
2022/10/11 01:48:18;;;;;;;11.57;6.80;;;;;;;;;;4966085;28;20776;-55
2022/10/11 01:50:48;;;;;;;8.83;5.90;;;;;;;;;;4949350;28;20441;-54
2022/10/11 01:53:33;;;;;;;15.10;7.30;;;;;;;;;;4980091;28;20871;-56
2022/10/11 01:56:05;;;;;;;14.90;6.37;;;;;;;;;;4976040;28;20444;-56
2022/10/11 01:58:46;;;;;;;9.40;7.67;;;;;;;;;;4977506;28;20918;-53
2022/10/11 02:01:21;;;;;;;10.50;7.60;;;;;;;;;;4937401;28;20504;-58
2022/10/11 02:03:49;;;;;;;11.83;7.60;;;;;;;;;;4973931;28;20451;-55
2022/10/11 02:06:41;;;;;;;12.57;7.40;;;;;;;;;;4978382;28;20479;-54
2022/10/11 02:09:12;;;;;;;10.70;6.13;;;;;;;;;;4980704;28;21068;-55
2022/10/11 02:11:38;;;;;;;13.47;6.90;;;;;;;;;;4947095;28;20442;-55
2022/10/11 02:14:08;;;;;;;11.40;8.03;;;;;;;;;;5010493;28;20570;-56
2022/10/11 02:16:38;;;;;;;10.73;6.90;;;;;;;;;;5010660;28;20429;-56
2022/10/11 02:19:04;;;;;;;11.67;6.80;;;;;;;;;;4973841;28;20441;-56
2022/10/11 02:21:30;;;;;;;19.17;7.27;;;;;;;;;;4957927;28;20503;-55
2022/10/11 02:24:00;;;;;;;11.10;6.17;;;;;;;;;;4979544;28;20445;-55
2022/10/11 02:26:27;;;;;;;16.03;8.10;;;;;;;;;;4986764;28;20489;-54
2022/10/11 02:28:53;;;;;;;12.93;7.90;;;;;;;;;;4975360;28;20544;-55
2022/10/11 02:31:19;;;;;;;18.53;7.93;;;;;;;;;;4960383;28;21178;-56
2022/10/11 02:33:47;;;;;;;13.87;8.00;;;;;;;;;;4975177;28;20540;-56
2022/10/11 02:36:23;;;;;;;10.50;7.77;;;;;;;;;;4996642;28;21240;-56
2022/10/11 02:38:50;;;;;;;12.30;8.13;;;;;;;;;;4983853;28;20441;-54
2022/10/11 02:41:22;;;;;;;10.00;8.10;;;;;;;;;;4977291;28;20484;-55
2022/10/11 02:43:54;;;;;;;11.20;7.20;;;;;;;;;;4976502;28;20438;-55
2022/10/11 02:46:20;;;;;;;18.97;7.70;;;;;;;;;;4969981;28;20575;-55
2022/10/11 02:48:46;;;;;;;16.10;7.77;;;;;;;;;;5005572;28;20528;-56
2022/10/11 02:51:12;;;;;;;11.20;7.70;;;;;;;;;;4955335;28;20436;-55
2022/10/11 02:53:38;;;;;;;14.23;7.83;;;;;;;;;;4977736;28;20917;-55
2022/10/11 02:56:05;;;;;;;19.10;10.20;;;;;;;;;;4956904;28;20469;-56
2022/10/11 02:58:31;;;;;;;20.07;11.03;;;;;;;;;;4972023;28;20458;-55
2022/10/11 03:00:57;;;;;;;18.47;10.20;;;;;;;;;;4969569;28;20448;-56
2022/10/11 03:03:23;;;;;;;24.20;11.33;;;;;;;;;;4974945;28;20437;-55
2022/10/11 03:05:49;;;;;;;17.50;9.50;;;;;;;;;;4936182;28;20493;-56
2022/10/11 03:08:15;;;;;;;19.87;10.97;;;;;;;;;;4979195;28;20437;-56
2022/10/11 03:10:41;;;;;;;20.00;12.20;;;;;;;;;;4969117;28;20445;-55
2022/10/11 03:13:07;;;;;;;20.87;12.87;;;;;;;;;;4978418;28;20453;-56
2022/10/11 03:15:33;;;;;;;20.53;10.47;;;;;;;;;;4946166;28;20500;-55
2022/10/11 03:17:59;;;;;;;25.67;11.60;;;;;;;;;;4978659;28;20436;-55
2022/10/11 03:20:25;;;;;;;18.43;9.77;;;;;;;;;;4971905;28;20479;-55
2022/10/11 03:22:51;;;;;;;20.50;10.03;;;;;;;;;;4974020;28;20438;-55
2022/10/11 03:25:17;;;;;;;21.77;12.60;;;;;;;;;;4954788;28;20497;-55
2022/10/11 03:27:43;;;;;;;22.03;12.73;;;;;;;;;;4973646;28;21063;-55
2022/10/11 03:30:10;;;;;;;20.37;11.30;;;;;;;;;;4953401;28;20441;-55
2022/10/11 03:32:35;;;;;;;18.30;10.80;;;;;;;;;;4967028;28;20432;-55
2022/10/11 03:35:02;;;;;;;20.80;12.10;;;;;;;;;;4934863;28;20483;-56
2022/10/11 03:37:28;;;;;;;26.20;13.73;;;;;;;;;;4973356;28;21057;-56
2022/10/11 03:39:53;;;;;;;20.30;11.40;;;;;;;;;;5000823;28;20445;-55
2022/10/11 03:42:19;;;;;;;23.67;10.97;;;;;;;;;;4975796;28;20444;-55
2022/10/11 03:44:48;;;;;;;27.87;15.50;;;;;;;;;;4950515;28;21237;-55
2022/10/11 03:47:14;;;;;;;33.90;15.77;;;;;;;;;;4974362;28;20439;-53
2022/10/11 03:49:40;;;;;;;36.50;16.23;;;;;;;;;;4970654;28;20449;-54
2022/10/11 03:52:06;;;;;;;26.47;14.77;;;;;;;;;;4973366;28;20437;-54
2022/10/11 03:54:32;;;;;;;24.93;14.47;;;;;;;;;;4957434;28;20473;-54
2022/10/11 03:56:58;;;;;;;19.10;11.97;;;;;;;;;;4971381;28;21529;-55
2022/10/11 03:59:24;;;;;;;27.57;13.00;;;;;;;;;;4964652;28;20512;-54
2022/10/11 04:01:50;;;;;;;22.40;13.63;;;;;;;;;;4967405;28;20977;-53
2022/10/11 04:04:17;;;;;;;21.90;13.87;;;;;;;;;;4964232;28;20453;-55
2022/10/11 04:06:43;;;;;;;28.73;14.27;;;;;;;;;;4958087;28;20175;-54
2022/10/11 04:09:09;;;;;;;22.30;13.80;;;;;;;;;;4977410;28;20432;-54
2022/10/11 04:11:35;;;;;;;23.97;13.60;;;;;;;;;;4978747;28;20447;-55
2022/10/11 04:14:01;;;;;;;29.90;12.60;;;;;;;;;;4973290;28;20485;-54
2022/10/11 04:16:27;;;;;;;24.60;16.70;;;;;;;;;;5004396;28;20444;-54
2022/10/11 04:18:53;;;;;;;23.73;14.90;;;;;;;;;;4981238;28;20456;-54
2022/10/11 04:21:19;;;;;;;33.57;16.40;;;;;;;;;;4949099;28;20449;-56
2022/10/11 04:23:45;;;;;;;29.47;19.00;;;;;;;;;;4980539;28;20479;-56
2022/10/11 04:26:11;;;;;;;49.00;20.63;;;;;;;;;;4950466;28;20452;-56
2022/10/11 04:28:37;;;;;;;37.33;17.70;;;;;;;;;;4979277;28;20538;-56
2022/10/11 04:31:04;;;;;;;36.07;18.90;;;;;;;;;;4970209;28;20446;-56
2022/10/11 04:33:29;;;;;;;28.83;17.90;;;;;;;;;;4978545;28;21431;-55
2022/10/11 04:35:55;;;;;;;37.97;20.77;;;;;;;;;;4943018;28;20958;-56
2022/10/11 04:38:22;;;;;;;38.83;18.30;;;;;;;;;;4986387;28;20521;-56
2022/10/11 04:40:48;;;;;;;40.40;19.53;;;;;;;;;;4978080;28;20448;-56
2022/10/11 04:43:15;;;;;;;33.43;20.37;;;;;;;;;;4973376;28;20448;-55
2022/10/11 04:45:41;;;;;;;37.53;20.70;;;;;;;;;;4953889;28;20441;-55
2022/10/11 04:48:07;;;;;;;35.50;18.40;;;;;;;;;;4945226;28;20460;-55
2022/10/11 04:50:33;;;;;;;34.00;19.87;;;;;;;;;;4980018;28;20441;-56
2022/10/11 04:52:59;;;;;;;33.77;20.90;;;;;;;;;;4951687;28;20495;-55
2022/10/11 04:55:25;;;;;;;34.07;20.10;;;;;;;;;;4947498;28;21922;-54
2022/10/11 04:57:51;;;;;;;36.77;20.53;;;;;;;;;;4979420;28;20539;-55
2022/10/11 05:00:17;;;;;;;34.30;18.93;;;;;;;;;;4961811;28;20551;-55
2022/10/11 05:02:43;;;;;;;31.20;18.87;;;;;;;;;;4948947;28;20437;-56
2022/10/11 05:05:09;;;;;;;32.73;18.13;;;;;;;;;;4973150;28;20480;-56
2022/10/11 05:07:35;;;;;;;37.50;19.80;;;;;;;;;;4943509;28;20445;-56
2022/10/11 05:10:01;;;;;;;32.47;18.50;;;;;;;;;;4979579;28;21420;-57
2022/10/11 05:12:27;;;;;;;28.97;19.03;;;;;;;;;;4968991;28;21226;-56
2022/10/11 05:14:53;;;;;;;33.90;19.73;;;;;;;;;;4986136;28;20495;-56
2022/10/11 05:17:19;;;;;;;30.70;19.77;;;;;;;;;;4970495;28;20433;-55
2022/10/11 05:19:45;;;;;;;36.97;18.80;;;;;;;;;;4974652;28;20474;-54
2022/10/11 05:22:11;;;;;;;35.40;21.47;;;;;;;;;;4946768;28;20500;-55
2022/10/11 05:24:37;;;;;;;31.83;18.37;;;;;;;;;;4949321;28;20952;-56
2022/10/11 05:27:03;;;;;;;30.27;18.93;;;;;;;;;;4976227;28;21345;-56
2022/10/11 05:29:29;;;;;;;36.27;18.93;;;;;;;;;;4958472;28;20464;-55
2022/10/11 05:31:55;;;;;;;39.80;20.40;;;;;;;;;;4983198;28;20525;-56
2022/10/11 05:34:21;;;;;;;34.73;19.93;;;;;;;;;;4960598;28;20502;-54
2022/10/11 05:36:47;;;;;;;38.13;19.40;;;;;;;;;;4988055;28;20980;-54
2022/10/11 05:39:13;;;;;;;35.20;21.17;;;;;;;;;;4938918;28;20456;-55
2022/10/11 05:41:39;;;;;;;42.57;19.87;;;;;;;;;;4982646;28;20464;-55
2022/10/11 05:44:06;;;;;;;43.10;20.27;;;;;;;;;;4981506;28;20965;-55
2022/10/11 05:46:32;;;;;;;30.63;19.50;;;;;;;;;;4975298;28;20448;-55
2022/10/11 05:48:58;;;;;;;37.20;19.27;;;;;;;;;;4980487;28;20448;-55
2022/10/11 05:51:24;;;;;;;34.33;19.57;;;;;;;;;;4978874;28;20783;-55
2022/10/11 05:53:50;;;;;;;34.23;18.90;;;;;;;;;;4957999;28;20994;-55
2022/10/11 05:56:17;;;;;;;32.00;18.63;;;;;;;;;;4980532;28;21004;-55
2022/10/11 05:58:43;;;;;;;32.23;18.20;;;;;;;;;;4953158;28;20440;-54
2022/10/11 06:01:15;;;;;;;36.77;19.07;;;;;;;;;;4982287;28;20488;-54
2022/10/11 06:03:41;;;;;;;34.27;21.07;;;;;;;;;;4974146;28;20432;-55
2022/10/11 06:06:07;;;;;;;34.50;19.83;;;;;;;;;;4981950;28;20429;-55
2022/10/11 06:08:33;;;;;;;42.77;20.97;;;;;;;;;;4944298;28;20527;-54
2022/10/11 06:11:08;;;;;;;33.10;19.20;;;;;;;;;;4974129;28;20445;-55
2022/10/11 06:13:34;;;;;;;35.53;19.93;;;;;;;;;;4950996;28;21053;-55
2022/10/11 06:16:03;;;;;;;33.57;18.10;;;;;;;;;;4958067;28;20436;-54
2022/10/11 06:18:29;;;;;;;33.33;18.37;;;;;;;;;;4980218;28;20447;-54
2022/10/11 06:20:57;;;;;;;26.93;18.03;;;;;;;;;;4977343;28;21005;-53
2022/10/11 06:23:22;;;;;;;27.00;17.80;;;;;;;;;;4980181;28;20473;-55
2022/10/11 06:25:58;;;;;;;28.87;17.40;;;;;;;;;;4953741;28;20513;-53
2022/10/11 06:28:25;;;;;;;35.17;18.37;;;;;;;;;;4978023;28;20893;-54
2022/10/11 06:30:51;;;;;;;33.10;18.10;;;;;;;;;;4952901;28;20835;-54
2022/10/11 06:33:17;;;;;;;28.90;17.33;;;;;;;;;;4982814;28;20433;-56
2022/10/11 06:35:43;;;;;;;30.83;17.80;;;;;;;;;;4977243;28;20429;-56
2022/10/11 06:38:09;;;;;;;41.90;20.80;;;;;;;;;;5012184;28;20473;-56
2022/10/11 06:40:35;;;;;;;29.30;19.20;;;;;;;;;;4945919;28;20450;-56
2022/10/11 06:43:01;;;;;;;31.10;19.97;;;;;;;;;;4983624;28;20460;-56
2022/10/11 06:45:27;;;;;;;29.93;18.53;;;;;;;;;;4959550;28;20453;-56
2022/10/11 06:47:53;;;;;;;27.83;18.60;;;;;;;;;;4982977;28;20612;-55
2022/10/11 06:50:18;;;;;;;32.00;18.70;;;;;;;;;;5003305;28;20527;-55
2022/10/11 06:52:46;;;;;;;27.43;16.90;;;;;;;;;;4979652;28;20541;-56
2022/10/11 06:55:12;;;;;;;29.47;17.93;;;;;;;;;;4955154;28;20579;-56
2022/10/11 06:57:38;;;;;;;32.40;17.37;;;;;;;;;;4978073;28;20532;-56
2022/10/11 07:00:04;;;;;;;28.23;17.90;;;;;;;;;;4963540;28;20448;-56
2022/10/11 07:02:30;;;;;;;23.87;17.30;;;;;;;;;;4964047;28;20445;-55
2022/10/11 07:04:56;;;;;;;25.03;16.93;;;;;;;;;;4957702;28;20480;-54
2022/10/11 07:07:22;;;;;;;22.13;15.20;;;;;;;;;;4975906;28;20442;-54
2022/10/11 07:09:48;;;;;;;26.90;15.30;;;;;;;;;;4973259;28;20851;-54
2022/10/11 07:12:15;;;;;;;35.17;16.60;;;;;;;;;;4978324;28;20449;-54
2022/10/11 07:14:41;;;;;;;27.13;15.87;;;;;;;;;;4922545;28;20481;-54
2022/10/11 07:17:07;;;;;;;26.10;16.33;;;;;;;;;;4927293;28;20450;-56
2022/10/11 07:19:33;;;;;;;35.80;18.50;;;;;;;;;;4979964;28;20452;-55
2022/10/11 07:21:59;;;;;;;32.33;17.43;;;;;;;;;;4971033;28;20440;-56
2022/10/11 07:24:25;;;;;;;25.80;16.80;;;;;;;;;;4979052;28;20492;-56
2022/10/11 07:26:51;;;;;;;28.10;17.07;;;;;;;;;;4956024;28;20464;-56
2022/10/11 07:29:17;;;;;;;30.50;17.23;;;;;;;;;;4975983;28;20440;-56
2022/10/11 07:31:43;;;;;;;24.53;16.80;;;;;;;;;;4954435;28;20445;-56
2022/10/11 07:34:09;;;;;;;25.10;16.67;;;;;;;;;;4979513;28;20571;-56
2022/10/11 07:36:35;;;;;;;23.67;16.40;;;;;;;;;;4955494;28;20456;-56
2022/10/11 07:39:02;;;;;;;24.87;15.90;;;;;;;;;;4978387;28;20456;-55
2022/10/11 07:41:28;;;;;;;25.80;16.27;;;;;;;;;;4974806;28;20445;-54
2022/10/11 07:43:54;;;;;;;21.40;15.13;;;;;;;;;;4977657;28;20452;-55
2022/10/11 07:46:23;;;;;;;26.07;17.40;;;;;;;;;;4958287;28;21072;-53
2022/10/11 07:48:49;;;;;;;24.33;17.27;;;;;;;;;;4969616;28;20508;-55
2022/10/11 07:51:15;;;;;;;28.27;16.50;;;;;;;;;;4974909;28;20883;-56
2022/10/11 07:53:44;;;;;;;27.80;15.27;;;;;;;;;;4976263;28;20584;-55
2022/10/11 07:56:14;;;;;;;40.00;17.90;;;;;;;;;;4982206;28;21185;-56
2022/10/11 07:58:40;;;;;;;27.53;17.50;;;;;;;;;;4977391;28;20432;-55
2022/10/11 08:01:06;;;;;;;29.73;17.50;;;;;;;;;;4981698;28;20441;-56
2022/10/11 08:03:32;;;;;;;31.10;17.20;;;;;;;;;;4965066;28;20441;-55
2022/10/11 08:05:59;;;;;;;29.67;16.33;;;;;;;;;;4976637;28;20445;-55
2022/10/11 08:08:25;;;;;;;26.20;17.07;;;;;;;;;;4979719;28;20437;-55
2022/10/11 08:10:51;;;;;;;25.43;14.63;;;;;;;;;;4985647;28;20536;-55
2022/10/11 08:13:17;;;;;;;27.87;16.47;;;;;;;;;;4955808;28;20521;-55
2022/10/11 08:15:43;;;;;;;21.57;15.80;;;;;;;;;;4976479;28;20491;-55
2022/10/11 08:18:09;;;;;;;27.97;15.70;;;;;;;;;;4977359;28;21851;-56
2022/10/11 08:20:37;;;;;;;23.90;17.70;;;;;;;;;;4976818;28;20456;-56
2022/10/11 08:23:03;;;;;;;24.80;16.10;;;;;;;;;;4923415;28;20441;-55
2022/10/11 08:25:29;;;;;;;27.03;16.07;;;;;;;;;;4979427;28;22800;-54
2022/10/11 08:27:55;;;;;;;28.63;17.90;;;;;;;;;;4974442;28;21444;-55
2022/10/11 08:30:21;;;;;;;26.87;16.30;;;;;;;;;;4973522;28;20445;-54
2022/10/11 08:32:47;;;;;;;23.07;14.57;;;;;;;;;;4972250;28;20442;-54
2022/10/11 08:35:13;;;;;;;25.50;15.10;;;;;;;;;;4978657;28;20480;-55
2022/10/11 08:37:39;;;;;;;25.70;16.90;;;;;;;;;;4962192;28;20465;-55
2022/10/11 08:40:05;;;;;;;31.77;16.53;;;;;;;;;;4983173;28;20440;-55
2022/10/11 08:42:58;;;;;;;29.23;16.90;;;;;;;;;;4954981;28;21210;-55
2022/10/11 08:45:29;;;;;;;26.30;15.80;;;;;;;;;;4977786;28;20429;-54
2022/10/11 08:48:16;;;;;;;24.60;15.97;;;;;;;;;;4980135;28;21048;-54
2022/10/11 08:50:42;;;;;;;30.50;17.00;;;;;;;;;;4950591;28;20446;-54
2022/10/11 08:53:47;;;;;;;24.17;17.47;;;;;;;;;;4976293;28;21119;-55
2022/10/11 08:56:13;;;;;;;25.33;15.63;;;;;;;;;;4952578;28;20989;-54
2022/10/11 08:58:43;;;;;;;28.43;16.37;;;;;;;;;;4978630;28;20462;-54
2022/10/11 09:01:12;;;;;;;29.27;17.20;;;;;;;;;;4968751;28;22256;-54
2022/10/11 09:03:39;;;;;;;24.90;16.67;;;;;;;;;;4982858;28;20438;-55
2022/10/11 09:06:05;;;;;;;27.10;16.90;;;;;;;;;;4962630;28;20511;-54
2022/10/11 09:08:37;;;;;;;20.77;15.40;;;;;;;;;;4982610;28;20997;-54
2022/10/11 09:11:12;;;;;;;25.00;15.37;;;;;;;;;;4964633;28;20437;-53
2022/10/11 09:13:58;;;;;;;33.30;16.63;;;;;;;;;;4984635;28;20440;-56
2022/10/11 09:16:41;;;;;;;27.30;17.17;;;;;;;;;;4960311;28;20437;-55
2022/10/11 09:19:13;;;;;;;27.80;17.13;;;;;;;;;;4976297;28;20463;-53
2022/10/11 09:21:59;;;;;;;26.33;18.77;;;;;;;;;;4979835;28;20506;-56
2022/10/11 09:24:31;;;;;;;31.27;16.30;;;;;;;;;;4963391;28;21122;-53
2022/10/11 09:26:58;;;;;;;29.77;16.63;;;;;;;;;;4990980;28;20452;-55
2022/10/11 09:29:43;;;;;;;29.90;16.33;;;;;;;;;;4953280;28;21151;-54
2022/10/11 09:32:12;;;;;;;22.37;17.17;;;;;;;;;;4975754;28;20465;-54
2022/10/11 09:34:38;;;;;;;27.27;15.07;;;;;;;;;;4953139;28;22776;-56
2022/10/11 09:37:17;;;;;;;27.87;16.53;;;;;;;;;;4994321;28;20795;-55
2022/10/11 09:40:09;;;;;;;28.53;16.23;;;;;;;;;;4956338;28;20470;-55
2022/10/11 09:42:35;;;;;;;30.87;17.90;;;;;;;;;;4997937;28;20502;-57
2022/10/11 09:45:03;;;;;;;29.03;15.63;;;;;;;;;;4957160;28;20448;-56
2022/10/11 09:47:30;;;;;;;27.00;16.43;;;;;;;;;;4977411;28;21010;-56
2022/10/11 09:49:57;;;;;;;28.07;15.10;;;;;;;;;;4957574;28;20476;-54
2022/10/11 09:52:23;;;;;;;32.77;18.10;;;;;;;;;;4983364;28;20429;-55
2022/10/11 09:54:50;;;;;;;22.47;13.70;;;;;;;;;;4958485;28;20523;-54
2022/10/11 09:57:20;;;;;;;24.70;16.73;;;;;;;;;;4980443;28;20435;-55
2022/10/11 09:59:57;;;;;;;31.53;16.93;;;;;;;;;;4949729;28;20873;-57
2022/10/11 10:02:23;;;;;;;21.03;15.00;;;;;;;;;;4980117;28;20448;-55
2022/10/11 10:05:13;;;;;;;30.13;16.43;;;;;;;;;;4977774;28;20894;-54
2022/10/11 10:07:39;;;;;;;24.33;14.27;;;;;;;;;;4971877;28;20441;-55
2022/10/11 10:10:24;;;;;;;25.47;15.20;;;;;;;;;;4978602;28;20433;-56
2022/10/11 10:12:54;;;;;;;26.87;14.10;;;;;;;;;;4975172;28;20437;-55
2022/10/11 10:15:19;;;;;;;18.97;14.80;;;;;;;;;;4954582;28;20487;-53
2022/10/11 10:17:52;;;;;;;24.97;15.80;;;;;;;;;;5007673;28;20442;-54
2022/10/11 10:20:21;;;;;;;30.20;15.70;;;;;;;;;;4948826;28;21064;-54
2022/10/11 10:22:47;;;;;;;20.87;13.67;;;;;;;;;;4981310;28;20456;-54
2022/10/11 10:25:19;;;;;;;29.73;15.77;;;;;;;;;;4976157;28;20441;-55
2022/10/11 10:27:55;;;;;;;23.50;15.70;;;;;;;;;;4980185;28;20182;-55
2022/10/11 10:30:21;;;;;;;20.03;14.50;;;;;;;;;;4978284;28;20432;-54
2022/10/11 10:32:51;;;;;;;22.70;15.00;;;;;;;;;;4978535;28;20475;-55
2022/10/11 10:35:29;;;;;;;25.07;14.20;;;;;;;;;;4941721;28;20873;-54
2022/10/11 10:38:27;;;;;;;21.43;14.07;;;;;;;;;;4983657;28;20438;-55
2022/10/11 10:40:57;;;;;;;25.23;14.27;;;;;;;;;;4975350;28;20452;-54
2022/10/11 10:43:27;;;;;;;26.87;13.80;;;;;;;;;;5006444;28;20424;-52
2022/10/11 10:46:11;;;;;;;19.70;12.07;;;;;;;;;;4967560;28;20963;-54
2022/10/11 10:48:40;;;;;;;21.03;12.03;;;;;;;;;;4978012;28;20889;-54
2022/10/11 10:51:23;;;;;;;24.97;14.30;;;;;;;;;;4954825;28;20436;-54
2022/10/11 10:54:02;;;;;;;20.80;13.90;;;;;;;;;;4978515;28;20518;-54
2022/10/11 10:56:33;;;;;;;23.33;14.57;;;;;;;;;;4956745;28;20529;-54
2022/10/11 10:59:02;;;;;;;31.50;13.90;;;;;;;;;;4976471;28;20445;-54
2022/10/11 11:01:30;;;;;;;20.00;14.33;;;;;;;;;;5003558;28;20436;-54
2022/10/11 11:03:56;;;;;;;21.00;14.10;;;;;;;;;;4974083;28;20444;-54
2022/10/11 11:06:51;;;;;;;19.53;12.57;;;;;;;;;;4974366;28;20443;-53
2022/10/11 11:09:36;;;;;;;25.73;13.67;;;;;;;;;;4951974;28;20698;-54
2022/10/11 11:12:05;;;;;;;18.90;12.77;;;;;;;;;;4971448;28;20437;-53
2022/10/11 11:14:31;;;;;;;16.83;12.03;;;;;;;;;;4974314;28;20544;-53
2022/10/11 11:17:01;;;;;;;19.43;12.33;;;;;;;;;;4954640;28;21731;-54
2022/10/11 11:19:43;;;;;;;18.57;14.00;;;;;;;;;;4973676;28;20436;-53
2022/10/11 11:22:09;;;;;;;23.73;13.10;;;;;;;;;;4958085;28;20438;-54
2022/10/11 11:24:44;;;;;;;25.13;15.30;;;;;;;;;;4980816;28;20506;-54
2022/10/11 11:27:29;;;;;;;18.67;14.30;;;;;;;;;;4957437;28;20734;-54
2022/10/11 11:30:11;;;;;;;16.87;11.63;;;;;;;;;;4980303;28;21215;-52
2022/10/11 11:32:53;;;;;;;19.90;12.53;;;;;;;;;;4977779;28;20460;-54
2022/10/11 11:35:22;;;;;;;21.87;12.87;;;;;;;;;;4952593;28;20484;-54
2022/10/11 11:37:48;;;;;;;19.20;12.67;;;;;;;;;;4977194;28;20802;-53
2022/10/11 11:40:19;;;;;;;18.63;12.63;;;;;;;;;;4948734;28;21034;-55
2022/10/11 11:42:48;;;;;;;20.93;13.07;;;;;;;;;;4972826;28;20716;-54
2022/10/11 11:45:24;;;;;;;15.63;10.80;;;;;;;;;;4960301;28;21676;-54
2022/10/11 11:47:54;;;;;;;17.53;12.73;;;;;;;;;;4976229;28;20445;-54
2022/10/11 11:50:22;;;;;;;19.27;11.90;;;;;;;;;;4979757;28;20441;-54
2022/10/11 11:52:48;;;;;;;22.33;11.10;;;;;;;;;;5009848;28;20539;-55
2022/10/11 11:55:23;;;;;;;14.97;10.50;;;;;;;;;;4959474;28;21067;-54
2022/10/11 11:57:52;;;;;;;17.93;10.60;;;;;;;;;;4975334;28;20447;-55
2022/10/11 12:00:22;;;;;;;19.30;12.07;;;;;;;;;;4954818;28;20453;-54
2022/10/11 12:02:55;;;;;;;21.17;11.40;;;;;;;;;;4977784;28;20499;-53
2022/10/11 12:05:22;;;;;;;17.50;10.70;;;;;;;;;;4953923;28;20457;-54
2022/10/11 12:07:50;;;;;;;15.27;11.03;;;;;;;;;;4973731;28;20781;-54
2022/10/11 12:10:22;;;;;;;21.37;11.10;;;;;;;;;;4950632;28;20877;-55
2022/10/11 12:12:49;;;;;;;19.17;10.80;;;;;;;;;;4972401;28;20445;-53
2022/10/11 12:15:23;;;;;;;19.80;11.90;;;;;;;;;;4961964;28;20508;-54
2022/10/11 12:17:52;;;;;;;14.43;11.50;;;;;;;;;;4971654;28;20433;-54
2022/10/11 12:20:24;;;;;;;21.90;11.27;;;;;;;;;;4976692;28;21008;-54
2022/10/11 12:22:57;;;;;;;13.80;10.70;;;;;;;;;;4982050;28;20429;-53
2022/10/11 12:25:22;;;;;;;17.80;11.50;;;;;;;;;;4956902;28;21629;-54
2022/10/11 12:28:02;;;;;;;18.10;12.27;;;;;;;;;;4985641;28;20466;-54
2022/10/11 12:30:45;;;;;;;16.83;10.80;;;;;;;;;;4953278;28;20516;-54
2022/10/11 12:33:14;;;;;;;15.33;11.23;;;;;;;;;;4978536;28;20433;-56
2022/10/11 12:35:47;;;;;;;14.37;10.67;;;;;;;;;;4955024;28;20511;-56
2022/10/11 12:38:22;;;;;;;16.60;10.37;;;;;;;;;;4973191;28;20440;-56
2022/10/11 12:40:49;;;;;;;15.67;11.00;;;;;;;;;;4965864;28;20954;-55
2022/10/11 12:43:15;;;;;;;16.23;10.40;;;;;;;;;;4982050;28;20437;-55
2022/10/11 12:45:46;;;;;;;17.83;10.73;;;;;;;;;;4944063;28;20953;-56
2022/10/11 12:48:31;;;;;;;14.40;10.93;;;;;;;;;;4979129;28;20181;-55
2022/10/11 12:51:00;;;;;;;16.03;10.30;;;;;;;;;;4964134;28;20516;-55
2022/10/11 12:53:50;;;;;;;15.13;12.07;;;;;;;;;;4984269;28;20445;-56
2022/10/11 12:56:16;;;;;;;13.93;9.80;;;;;;;;;;4989470;28;20464;-56
2022/10/11 12:58:45;;;;;;;15.13;9.90;;;;;;;;;;4979226;28;20816;-56
2022/10/11 13:01:16;;;;;;;12.13;10.00;;;;;;;;;;4986217;28;20432;-54
2022/10/11 13:03:49;;;;;;;18.57;10.53;;;;;;;;;;4972994;28;20460;-54
2022/10/11 13:06:25;;;;;;;14.83;9.90;;;;;;;;;;4978382;28;20442;-55
2022/10/11 13:08:53;;;;;;;14.50;9.80;;;;;;;;;;4951379;28;20595;-55
2022/10/11 13:11:20;;;;;;;13.17;9.50;;;;;;;;;;4980528;28;20448;-54
2022/10/11 13:13:53;;;;;;;13.53;9.40;;;;;;;;;;4974221;28;20483;-55
2022/10/11 13:16:21;;;;;;;10.60;8.60;;;;;;;;;;4981495;28;20442;-55
2022/10/11 13:18:48;;;;;;;10.97;9.07;;;;;;;;;;4943998;28;20496;-55
2022/10/11 13:21:28;;;;;;;20.37;11.57;;;;;;;;;;4985320;28;20441;-55
2022/10/11 13:23:56;;;;;;;11.87;9.43;;;;;;;;;;4963078;28;20445;-54
2022/10/11 13:26:22;;;;;;;10.90;8.63;;;;;;;;;;4976639;28;20529;-55
2022/10/11 13:28:48;;;;;;;16.57;9.27;;;;;;;;;;4959451;28;20437;-55
2022/10/11 13:31:14;;;;;;;10.87;8.43;;;;;;;;;;4980260;28;20205;-54
2022/10/11 13:33:40;;;;;;;14.30;8.70;;;;;;;;;;4951228;28;20464;-54
2022/10/11 13:36:08;;;;;;;12.87;9.07;;;;;;;;;;5005691;28;20436;-55
2022/10/11 13:38:35;;;;;;;13.93;9.20;;;;;;;;;;4954373;28;20515;-54
2022/10/11 13:41:02;;;;;;;9.30;8.17;;;;;;;;;;4976576;28;20475;-54
2022/10/11 13:43:28;;;;;;;10.67;9.27;;;;;;;;;;4981019;28;21243;-55
2022/10/11 13:45:54;;;;;;;17.80;9.70;;;;;;;;;;4977687;28;20445;-56
2022/10/11 13:48:21;;;;;;;13.50;9.53;;;;;;;;;;4940262;28;20916;-53
2022/10/11 13:51:05;;;;;;;14.90;8.63;;;;;;;;;;4979017;28;20597;-54
2022/10/11 13:53:31;;;;;;;15.10;9.20;;;;;;;;;;4975170;28;20950;-55
2022/10/11 13:56:02;;;;;;;11.97;9.00;;;;;;;;;;4974003;28;20579;-53
2022/10/11 13:58:34;;;;;;;13.97;8.70;;;;;;;;;;4979378;28;20623;-58
2022/10/11 14:01:16;;;;;;;11.70;8.10;;;;;;;;;;4978610;28;20463;-55
2022/10/11 14:03:55;;;;;;;12.40;8.23;;;;;;;;;;4968586;28;20453;-55
2022/10/11 14:06:21;;;;;;;10.87;7.83;;;;;;;;;;4998745;28;20895;-54
2022/10/11 14:08:50;;;;;;;11.33;9.20;;;;;;;;;;4962814;28;20540;-55
2022/10/11 14:11:16;;;;;;;15.33;8.93;;;;;;;;;;4968289;28;20449;-53
2022/10/11 14:13:46;;;;;;;14.60;9.17;;;;;;;;;;5001872;28;20441;-55
2022/10/11 14:16:13;;;;;;;17.30;10.03;;;;;;;;;;4973903;28;20619;-54
2022/10/11 14:18:40;;;;;;;18.53;8.90;;;;;;;;;;4972233;28;20437;-55
2022/10/11 14:21:25;;;;;;;16.80;10.23;;;;;;;;;;4959032;28;21197;-54
2022/10/11 14:23:54;;;;;;;13.13;8.97;;;;;;;;;;4969194;28;20438;-56
2022/10/11 14:26:20;;;;;;;10.90;8.63;;;;;;;;;;4971509;28;20539;-55
2022/10/11 14:28:56;;;;;;;11.37;8.70;;;;;;;;;;4975549;28;20881;-55
2022/10/11 14:31:23;;;;;;;13.13;8.60;;;;;;;;;;4975219;28;20441;-57
2022/10/11 14:33:49;;;;;;;9.87;8.53;;;;;;;;;;4979028;28;21061;-54